Time;durP1;ratioP1;P1;durP2;ratioP2;P2;SDS_P1;SDS_P2;PMS_P1;PMS_P2;Temp;Humidity;BMP_temperature;BMP_pressure;BME280_temperature;BME280_humidity;BME280_pressure;Samples;Min_cycle;Max_cycle;Signal;HPM_P1;HPM_P2
2022/06/17 00:01:27;;;;;;;14.90;10.68;;;;;;;;;;5084650;28;20057;-66
2022/06/17 00:03:53;;;;;;;16.20;11.82;;;;;;;;;;5080452;28;20040;-65
2022/06/17 00:06:23;;;;;;;17.17;12.85;;;;;;;;;;5087090;28;20046;-65
2022/06/17 00:08:52;;;;;;;16.65;13.18;;;;;;;;;;5089069;28;20108;-65
2022/06/17 00:11:21;;;;;;;16.55;11.82;;;;;;;;;;5081298;28;20046;-65
2022/06/17 00:13:48;;;;;;;15.82;12.57;;;;;;;;;;5084273;28;20042;-66
2022/06/17 00:16:15;;;;;;;17.52;12.98;;;;;;;;;;5084118;28;20039;-65
2022/06/17 00:18:42;;;;;;;16.40;12.30;;;;;;;;;;5082593;28;20233;-65
2022/06/17 00:21:13;;;;;;;18.33;13.07;;;;;;;;;;5086563;28;20444;-65
2022/06/17 00:23:40;;;;;;;14.13;10.30;;;;;;;;;;5082802;28;20382;-65
2022/06/17 00:26:06;;;;;;;16.33;11.93;;;;;;;;;;5079865;28;20040;-65
2022/06/17 00:28:32;;;;;;;16.55;11.85;;;;;;;;;;5077162;28;20036;-65
2022/06/17 00:30:58;;;;;;;15.10;11.70;;;;;;;;;;5083761;28;20069;-65
2022/06/17 00:33:24;;;;;;;13.63;10.77;;;;;;;;;;5086236;28;20097;-65
2022/06/17 00:35:51;;;;;;;14.20;11.80;;;;;;;;;;5081511;28;20175;-65
2022/06/17 00:38:20;;;;;;;15.68;11.38;;;;;;;;;;5080715;28;20878;-65
2022/06/17 00:40:46;;;;;;;12.77;10.05;;;;;;;;;;5084470;28;20482;-65
2022/06/17 00:43:27;;;;;;;16.67;11.23;;;;;;;;;;5089427;28;20040;-66
2022/06/17 00:46:05;;;;;;;13.77;9.25;;;;;;;;;;5089916;28;20040;-65
2022/06/17 00:48:41;;;;;;;14.32;10.60;;;;;;;;;;5088513;28;20043;-65
2022/06/17 00:51:14;;;;;;;14.27;9.48;;;;;;;;;;5088857;28;20047;-66
2022/06/17 00:54:03;;;;;;;13.75;10.32;;;;;;;;;;5075527;28;20105;-65
2022/06/17 00:56:31;;;;;;;12.80;9.98;;;;;;;;;;5075787;28;20044;-65
2022/06/17 00:59:05;;;;;;;17.45;9.30;;;;;;;;;;5072117;28;20052;-66
2022/06/17 01:01:43;;;;;;;12.52;10.05;;;;;;;;;;5088322;28;20051;-67
2022/06/17 01:04:10;;;;;;;16.67;9.75;;;;;;;;;;5077394;28;20043;-66
2022/06/17 01:06:38;;;;;;;12.63;10.00;;;;;;;;;;5077724;28;20517;-66
2022/06/17 01:12:16;;;;;;;10.25;8.60;;;;;;;;;;5083978;28;20058;-66
2022/06/17 01:14:43;;;;;;;12.68;9.57;;;;;;;;;;5082366;28;20558;-66
2022/06/17 01:17:10;;;;;;;12.35;8.88;;;;;;;;;;5085432;28;20085;-66
2022/06/17 01:19:53;;;;;;;14.70;9.98;;;;;;;;;;5081905;28;20032;-66
2022/06/17 01:22:28;;;;;;;11.23;9.52;;;;;;;;;;5082547;28;20070;-66
2022/06/17 01:25:15;;;;;;;13.55;9.10;;;;;;;;;;5073779;28;20043;-66
2022/06/17 01:27:48;;;;;;;14.85;9.65;;;;;;;;;;5080903;28;20202;-66
2022/06/17 01:30:17;;;;;;;14.80;9.55;;;;;;;;;;5086764;28;20051;-67
2022/06/17 01:32:49;;;;;;;11.27;9.38;;;;;;;;;;5083850;28;20083;-66
2022/06/17 01:35:15;;;;;;;10.95;8.18;;;;;;;;;;5076759;28;20044;-66
2022/06/17 01:37:41;;;;;;;15.20;10.07;;;;;;;;;;5087226;28;20072;-66
2022/06/17 01:40:08;;;;;;;11.32;9.32;;;;;;;;;;5083801;28;20036;-66
2022/06/17 01:42:36;;;;;;;14.07;8.70;;;;;;;;;;5083503;28;20497;-66
2022/06/17 01:45:02;;;;;;;15.82;9.07;;;;;;;;;;5079014;28;20415;-66
2022/06/17 01:47:30;;;;;;;10.45;8.13;;;;;;;;;;5077500;28;20127;-66
2022/06/17 01:50:05;;;;;;;11.63;8.55;;;;;;;;;;5078802;28;20386;-66
2022/06/17 01:52:35;;;;;;;11.82;8.02;;;;;;;;;;5083469;28;20497;-66
2022/06/17 01:55:07;;;;;;;12.27;8.63;;;;;;;;;;5075977;28;20435;-66
2022/06/17 01:57:40;;;;;;;8.55;6.82;;;;;;;;;;5081872;28;20437;-66
2022/06/17 02:00:12;;;;;;;11.85;9.23;;;;;;;;;;5077567;28;20044;-65
2022/06/17 02:02:40;;;;;;;11.32;8.07;;;;;;;;;;5088340;28;20050;-66
2022/06/17 02:05:07;;;;;;;11.38;8.10;;;;;;;;;;5085051;28;20063;-66
2022/06/17 02:07:36;;;;;;;9.68;7.72;;;;;;;;;;5086655;28;20036;-66
2022/06/17 02:10:03;;;;;;;8.40;7.40;;;;;;;;;;5081215;28;20501;-65
2022/06/17 02:12:30;;;;;;;9.00;7.30;;;;;;;;;;5083531;28;20505;-66
2022/06/17 02:14:56;;;;;;;12.60;8.38;;;;;;;;;;5082310;28;20044;-66
2022/06/17 02:17:28;;;;;;;11.73;8.60;;;;;;;;;;5084516;28;20097;-66
2022/06/17 02:19:54;;;;;;;12.07;8.10;;;;;;;;;;5071774;28;20478;-65
2022/06/17 02:22:25;;;;;;;10.52;7.47;;;;;;;;;;5079843;28;20595;-66
2022/06/17 02:24:52;;;;;;;10.07;7.25;;;;;;;;;;5074238;28;20087;-65
2022/06/17 02:27:19;;;;;;;8.57;6.68;;;;;;;;;;5074387;28;20036;-66
2022/06/17 02:29:45;;;;;;;12.40;6.82;;;;;;;;;;5083257;28;20040;-65
2022/06/17 02:32:12;;;;;;;12.30;7.18;;;;;;;;;;5083320;28;20036;-66
2022/06/17 02:34:45;;;;;;;10.48;7.80;;;;;;;;;;5080753;28;20036;-66
2022/06/17 02:37:13;;;;;;;7.72;6.03;;;;;;;;;;5077695;28;20071;-65
2022/06/17 02:39:42;;;;;;;10.35;6.75;;;;;;;;;;5082190;28;20037;-66
2022/06/17 02:42:15;;;;;;;7.78;6.70;;;;;;;;;;5081901;28;20060;-66
2022/06/17 02:44:42;;;;;;;8.98;5.95;;;;;;;;;;5088006;28;20051;-65
2022/06/17 02:47:09;;;;;;;9.05;6.57;;;;;;;;;;5080049;28;20485;-66
2022/06/17 02:49:36;;;;;;;9.75;5.88;;;;;;;;;;5084471;28;20040;-66
2022/06/17 02:52:04;;;;;;;9.48;6.50;;;;;;;;;;5083648;28;20048;-66
2022/06/17 02:54:33;;;;;;;9.15;6.07;;;;;;;;;;5082163;28;20304;-66
2022/06/17 02:57:02;;;;;;;10.77;6.70;;;;;;;;;;5088120;28;20041;-66
2022/06/17 02:59:33;;;;;;;14.15;7.55;;;;;;;;;;5084425;28;20046;-66
2022/06/17 03:02:02;;;;;;;9.27;6.07;;;;;;;;;;5083148;28;20506;-65
2022/06/17 03:04:29;;;;;;;7.90;6.57;;;;;;;;;;5091730;28;20097;-65
2022/06/17 03:06:55;;;;;;;9.35;7.05;;;;;;;;;;5087303;28;20123;-65
2022/06/17 03:09:21;;;;;;;10.30;6.35;;;;;;;;;;5090523;28;20036;-66
2022/06/17 03:12:11;;;;;;;8.23;6.28;;;;;;;;;;5078263;28;20367;-66
2022/06/17 03:14:42;;;;;;;7.25;6.20;;;;;;;;;;5087726;28;20052;-65
2022/06/17 03:17:10;;;;;;;10.25;5.95;;;;;;;;;;5086410;28;20181;-65
2022/06/17 03:19:37;;;;;;;11.02;6.78;;;;;;;;;;5088923;28;20112;-65
2022/06/17 03:22:07;;;;;;;11.02;6.10;;;;;;;;;;5088611;28;20363;-65
2022/06/17 03:24:46;;;;;;;8.70;6.15;;;;;;;;;;5078961;28;20047;-65
2022/06/17 03:27:22;;;;;;;8.43;6.78;;;;;;;;;;5086546;28;20051;-65
2022/06/17 03:29:49;;;;;;;10.40;6.10;;;;;;;;;;5089746;28;20040;-65
2022/06/17 03:32:18;;;;;;;7.50;6.28;;;;;;;;;;5076657;28;20123;-65
2022/06/17 03:34:47;;;;;;;11.27;6.85;;;;;;;;;;5090554;28;20535;-65
2022/06/17 03:37:17;;;;;;;12.25;7.30;;;;;;;;;;5078329;28;20075;-65
2022/06/17 03:39:55;;;;;;;10.27;6.05;;;;;;;;;;5085246;28;20474;-65
2022/06/17 03:42:43;;;;;;;8.40;6.00;;;;;;;;;;5078117;28;20418;-65
2022/06/17 03:45:22;;;;;;;7.50;5.90;;;;;;;;;;5081570;28;20051;-65
2022/06/17 03:47:48;;;;;;;11.40;6.53;;;;;;;;;;5087175;28;20032;-65
2022/06/17 03:50:20;;;;;;;10.52;6.70;;;;;;;;;;5090992;28;20448;-65
2022/06/17 03:52:49;;;;;;;8.23;6.35;;;;;;;;;;5081877;28;20044;-65
2022/06/17 03:55:16;;;;;;;11.05;6.35;;;;;;;;;;5085366;28;20055;-65
2022/06/17 03:57:44;;;;;;;8.57;5.50;;;;;;;;;;5082855;28;20044;-65
2022/06/17 04:00:16;;;;;;;16.33;5.95;;;;;;;;;;5081294;28;20051;-65
2022/06/17 04:02:43;;;;;;;7.73;5.60;;;;;;;;;;5085765;28;20452;-65
2022/06/17 04:05:14;;;;;;;7.70;5.25;;;;;;;;;;5088430;28;20074;-65
2022/06/17 04:07:40;;;;;;;7.93;5.68;;;;;;;;;;5081993;28;20038;-65
2022/06/17 04:10:07;;;;;;;10.55;7.03;;;;;;;;;;5075832;28;20040;-65
2022/06/17 04:12:34;;;;;;;8.77;5.78;;;;;;;;;;5080613;28;20044;-65
2022/06/17 04:15:22;;;;;;;7.72;5.38;;;;;;;;;;5078434;28;20040;-65
2022/06/17 04:17:50;;;;;;;8.20;5.85;;;;;;;;;;5080597;28;20504;-65
2022/06/17 04:20:21;;;;;;;9.48;5.43;;;;;;;;;;5079336;28;20040;-65
2022/06/17 04:22:48;;;;;;;10.63;7.03;;;;;;;;;;5088769;28;20043;-65
2022/06/17 04:25:17;;;;;;;8.95;6.18;;;;;;;;;;5077307;28;20043;-65
2022/06/17 04:27:56;;;;;;;9.98;7.03;;;;;;;;;;5078220;28;20502;-65
2022/06/17 04:30:24;;;;;;;7.75;6.28;;;;;;;;;;5079329;28;20036;-65
2022/06/17 04:32:53;;;;;;;7.65;6.60;;;;;;;;;;5084936;28;20036;-66
2022/06/17 04:35:19;;;;;;;9.02;7.75;;;;;;;;;;5078808;28;20047;-65
2022/06/17 04:37:46;;;;;;;10.93;7.18;;;;;;;;;;5082763;28;20314;-65
2022/06/17 04:40:23;;;;;;;9.27;6.60;;;;;;;;;;5081863;28;20032;-64
2022/06/17 04:42:52;;;;;;;9.27;7.20;;;;;;;;;;5087680;28;20134;-65
2022/06/17 04:45:20;;;;;;;8.55;6.28;;;;;;;;;;5076679;28;20044;-65
2022/06/17 04:47:46;;;;;;;10.88;6.88;;;;;;;;;;5083642;28;20498;-64
2022/06/17 04:50:15;;;;;;;9.77;7.47;;;;;;;;;;5083776;28;20032;-65
2022/06/17 04:52:43;;;;;;;10.65;7.38;;;;;;;;;;5080185;28;20574;-66
2022/06/17 04:55:21;;;;;;;10.82;7.43;;;;;;;;;;5078679;28;20541;-65
2022/06/17 04:57:48;;;;;;;8.45;6.35;;;;;;;;;;5086765;28;20069;-64
2022/06/17 05:00:17;;;;;;;9.43;6.65;;;;;;;;;;5087794;28;20232;-65
2022/06/17 05:02:43;;;;;;;10.68;8.10;;;;;;;;;;5083705;28;20161;-65
2022/06/17 05:05:12;;;;;;;11.65;7.75;;;;;;;;;;5076386;28;20039;-64
2022/06/17 05:07:44;;;;;;;15.82;7.78;;;;;;;;;;5079680;28;20082;-65
2022/06/17 05:10:16;;;;;;;9.85;7.10;;;;;;;;;;5078612;28;20544;-64
2022/06/17 05:12:48;;;;;;;9.77;7.53;;;;;;;;;;5085506;28;20485;-65
2022/06/17 05:15:18;;;;;;;9.18;6.90;;;;;;;;;;5085310;28;20173;-65
2022/06/17 05:17:45;;;;;;;11.32;8.05;;;;;;;;;;5070660;28;20045;-65
2022/06/17 05:20:13;;;;;;;11.32;8.35;;;;;;;;;;5079792;28;20564;-65
2022/06/17 05:22:45;;;;;;;12.43;7.50;;;;;;;;;;5077464;28;20040;-65
2022/06/17 05:25:15;;;;;;;9.52;7.47;;;;;;;;;;5085431;28;20796;-64
2022/06/17 05:27:42;;;;;;;12.73;7.80;;;;;;;;;;5082295;28;20546;-64
2022/06/17 05:30:08;;;;;;;10.27;7.88;;;;;;;;;;5083533;28;20032;-65
2022/06/17 05:32:34;;;;;;;8.55;6.53;;;;;;;;;;5074695;28;20053;-65
2022/06/17 05:35:01;;;;;;;9.85;7.60;;;;;;;;;;5082060;28;20032;-65
2022/06/17 05:37:27;;;;;;;12.18;7.65;;;;;;;;;;5081216;28;20036;-64
2022/06/17 05:39:54;;;;;;;8.57;6.93;;;;;;;;;;5083935;28;20046;-64
2022/06/17 05:42:21;;;;;;;7.85;6.97;;;;;;;;;;5083567;28;20044;-64
2022/06/17 05:44:47;;;;;;;14.38;8.13;;;;;;;;;;5070362;28;20087;-65
2022/06/17 05:47:13;;;;;;;9.05;7.28;;;;;;;;;;5079700;28;20043;-64
2022/06/17 05:49:40;;;;;;;11.27;7.97;;;;;;;;;;5074046;28;20051;-64
2022/06/17 05:52:06;;;;;;;10.77;7.80;;;;;;;;;;5073092;28;20048;-65
2022/06/17 05:54:33;;;;;;;10.48;7.63;;;;;;;;;;5073915;28;20097;-65
2022/06/17 05:56:59;;;;;;;11.50;7.30;;;;;;;;;;5074560;28;20053;-64
2022/06/17 05:59:25;;;;;;;9.68;7.25;;;;;;;;;;5084664;28;20501;-65
2022/06/17 06:01:51;;;;;;;9.00;6.65;;;;;;;;;;5071896;28;20039;-64
2022/06/17 06:04:17;;;;;;;10.75;7.22;;;;;;;;;;5082515;28;20047;-64
2022/06/17 06:06:43;;;;;;;10.27;7.88;;;;;;;;;;5077860;28;20036;-65
2022/06/17 06:09:10;;;;;;;16.38;7.60;;;;;;;;;;5075643;28;20044;-65
2022/06/17 06:11:36;;;;;;;12.77;8.00;;;;;;;;;;5073597;28;20075;-65
2022/06/17 06:14:02;;;;;;;9.98;7.55;;;;;;;;;;5082209;28;20421;-64
2022/06/17 06:16:30;;;;;;;13.05;8.25;;;;;;;;;;5075906;28;20036;-64
2022/06/17 06:18:56;;;;;;;10.43;8.52;;;;;;;;;;5074048;28;20115;-65
2022/06/17 06:21:23;;;;;;;12.57;7.80;;;;;;;;;;5074784;28;20040;-65
2022/06/17 06:23:49;;;;;;;10.75;8.45;;;;;;;;;;5087322;28;20028;-65
2022/06/17 06:26:17;;;;;;;13.50;9.00;;;;;;;;;;5092247;28;20422;-64
2022/06/17 06:28:44;;;;;;;12.85;9.02;;;;;;;;;;5085852;28;20501;-65
2022/06/17 06:31:22;;;;;;;11.88;8.27;;;;;;;;;;5083190;28;20032;-65
2022/06/17 06:33:49;;;;;;;8.52;7.53;;;;;;;;;;5091790;28;20043;-65
2022/06/17 06:36:15;;;;;;;11.30;7.38;;;;;;;;;;5089430;28;20119;-65
2022/06/17 06:38:41;;;;;;;10.00;7.43;;;;;;;;;;5087575;28;20192;-65
2022/06/17 06:41:08;;;;;;;9.40;7.30;;;;;;;;;;5090212;28;20547;-65
2022/06/17 06:43:34;;;;;;;12.70;9.27;;;;;;;;;;5086551;28;20065;-65
2022/06/17 06:46:04;;;;;;;10.23;7.78;;;;;;;;;;5064211;28;20037;-65
2022/06/17 06:48:30;;;;;;;12.57;9.38;;;;;;;;;;5084905;28;20036;-64
2022/06/17 06:50:57;;;;;;;12.55;9.23;;;;;;;;;;5088197;28;20044;-65
2022/06/17 06:53:23;;;;;;;11.60;8.07;;;;;;;;;;5082038;28;20050;-65
2022/06/17 06:55:49;;;;;;;10.93;8.60;;;;;;;;;;5077250;28;20163;-65
2022/06/17 06:58:20;;;;;;;11.80;9.18;;;;;;;;;;5085419;28;20048;-65
2022/06/17 07:00:48;;;;;;;10.40;8.32;;;;;;;;;;5088516;28;20028;-65
2022/06/17 07:03:14;;;;;;;11.68;9.52;;;;;;;;;;5081804;28;20113;-65
2022/06/17 07:05:43;;;;;;;10.77;9.10;;;;;;;;;;5090116;28;20032;-64
2022/06/17 07:08:11;;;;;;;13.05;9.68;;;;;;;;;;5090908;28;20044;-65
2022/06/17 07:10:37;;;;;;;11.20;8.20;;;;;;;;;;5079624;28;20391;-65
2022/06/17 07:13:05;;;;;;;12.48;8.75;;;;;;;;;;5088739;28;20371;-65
2022/06/17 07:15:32;;;;;;;12.05;8.90;;;;;;;;;;5089344;28;20063;-65
2022/06/17 07:18:04;;;;;;;15.00;10.10;;;;;;;;;;5089357;28;20031;-65
2022/06/17 07:20:42;;;;;;;12.80;10.00;;;;;;;;;;5074818;28;20043;-65
2022/06/17 07:23:10;;;;;;;12.45;8.77;;;;;;;;;;5080300;28;20098;-65
2022/06/17 07:25:36;;;;;;;12.13;9.25;;;;;;;;;;5089978;28;20032;-65
2022/06/17 07:28:03;;;;;;;11.63;9.10;;;;;;;;;;5076412;28;20044;-65
2022/06/17 07:30:30;;;;;;;12.45;10.43;;;;;;;;;;5086318;28;20074;-65
2022/06/17 07:32:56;;;;;;;12.88;8.48;;;;;;;;;;5083924;28;20564;-65
2022/06/17 07:35:22;;;;;;;10.00;8.98;;;;;;;;;;5089765;28;20043;-65
2022/06/17 07:40:34;;;;;;;15.68;9.27;;;;;;;;;;5083488;28;20059;-65
2022/06/17 07:43:00;;;;;;;11.82;8.88;;;;;;;;;;5084579;28;20036;-65
2022/06/17 07:45:27;;;;;;;15.63;8.80;;;;;;;;;;5077868;28;20044;-65
2022/06/17 07:47:53;;;;;;;14.55;9.02;;;;;;;;;;5081551;28;20052;-65
2022/06/17 07:50:25;;;;;;;12.10;8.98;;;;;;;;;;5087721;28;20043;-65
2022/06/17 07:52:52;;;;;;;13.00;10.15;;;;;;;;;;5082574;28;20068;-65
2022/06/17 07:55:20;;;;;;;13.65;9.63;;;;;;;;;;5078134;28;20075;-65
2022/06/17 07:57:46;;;;;;;13.40;9.30;;;;;;;;;;5088267;28;20036;-65
2022/06/17 08:00:22;;;;;;;12.70;10.27;;;;;;;;;;5084562;28;20443;-65
2022/06/17 08:02:48;;;;;;;13.38;9.30;;;;;;;;;;5081529;28;20032;-65
2022/06/17 08:05:14;;;;;;;12.85;8.70;;;;;;;;;;5080943;28;20044;-65
2022/06/17 08:07:40;;;;;;;14.15;10.05;;;;;;;;;;5085590;28;20464;-65
2022/06/17 08:10:06;;;;;;;13.43;9.45;;;;;;;;;;5080525;28;20044;-65
2022/06/17 08:12:33;;;;;;;11.77;9.02;;;;;;;;;;5080746;28;20040;-65
2022/06/17 08:14:59;;;;;;;12.18;9.13;;;;;;;;;;5087036;28;20040;-65
2022/06/17 08:17:25;;;;;;;14.02;9.88;;;;;;;;;;5089680;28;20406;-65
2022/06/17 08:19:56;;;;;;;12.65;8.98;;;;;;;;;;5087717;28;20036;-65
2022/06/17 08:22:24;;;;;;;13.85;8.10;;;;;;;;;;5086535;28;20101;-64
2022/06/17 08:24:50;;;;;;;12.07;7.68;;;;;;;;;;5081036;28;21762;-64
2022/06/17 08:27:16;;;;;;;12.27;8.68;;;;;;;;;;5076444;28;20088;-65
2022/06/17 08:29:43;;;;;;;11.63;7.72;;;;;;;;;;5078521;28;20135;-65
2022/06/17 08:34:54;;;;;;;12.75;8.63;;;;;;;;;;5081006;28;20430;-65
2022/06/17 08:37:21;;;;;;;10.95;8.10;;;;;;;;;;5054015;28;20040;-65
2022/06/17 08:39:48;;;;;;;11.30;8.27;;;;;;;;;;5062180;28;20097;-65
2022/06/17 08:42:25;;;;;;;10.05;7.45;;;;;;;;;;5069996;28;20047;-65
2022/06/17 08:44:52;;;;;;;9.55;7.07;;;;;;;;;;5080350;28;20055;-65
2022/06/17 08:47:25;;;;;;;9.60;7.63;;;;;;;;;;5075248;28;20127;-65
2022/06/17 08:50:05;;;;;;;10.13;7.88;;;;;;;;;;5075714;28;20413;-65
2022/06/17 08:52:31;;;;;;;8.05;7.00;;;;;;;;;;5081385;28;20075;-65
2022/06/17 08:55:06;;;;;;;12.93;6.88;;;;;;;;;;5071877;28;20102;-65
2022/06/17 08:57:44;;;;;;;9.50;6.35;;;;;;;;;;5072548;28;20047;-65
2022/06/17 09:00:14;;;;;;;8.65;6.68;;;;;;;;;;5079114;28;20472;-65
2022/06/17 09:02:40;;;;;;;9.38;6.18;;;;;;;;;;5073059;28;20080;-65
2022/06/17 09:05:12;;;;;;;7.65;6.38;;;;;;;;;;5084415;28;20390;-65
2022/06/17 09:07:57;;;;;;;11.55;6.43;;;;;;;;;;5083146;28;20479;-65
2022/06/17 09:10:42;;;;;;;13.48;6.40;;;;;;;;;;5078775;28;20046;-65
2022/06/17 09:13:31;;;;;;;11.68;7.20;;;;;;;;;;5078207;28;20513;-65
2022/06/17 09:16:00;;;;;;;10.32;7.05;;;;;;;;;;5080299;28;20044;-65
2022/06/17 09:18:31;;;;;;;10.07;5.60;;;;;;;;;;5088123;28;20043;-65
2022/06/17 09:21:00;;;;;;;7.75;5.97;;;;;;;;;;5086276;28;20067;-65
2022/06/17 09:23:30;;;;;;;11.73;6.72;;;;;;;;;;5075734;28;20040;-65
2022/06/17 09:25:57;;;;;;;9.70;6.18;;;;;;;;;;5084486;28;20040;-65
2022/06/17 09:28:34;;;;;;;9.60;6.50;;;;;;;;;;5075273;28;20540;-65
2022/06/17 09:31:12;;;;;;;11.48;6.65;;;;;;;;;;5079011;28;20040;-66
2022/06/17 09:33:44;;;;;;;10.18;6.88;;;;;;;;;;5077557;28;20041;-65
2022/06/17 09:36:10;;;;;;;;;;;;;;;;;;5076185;28;20501;-65
2022/06/17 09:38:43;;;;;;;10.88;7.15;;;;;;;;;;5074181;28;20483;-65
2022/06/17 09:41:16;;;;;;;12.88;7.45;;;;;;;;;;5083449;28;20054;-66
2022/06/17 09:43:54;;;;;;;7.15;6.38;;;;;;;;;;5082459;28;20086;-65
2022/06/17 09:46:56;;;;;;;11.38;6.90;;;;;;;;;;5076847;28;20043;-66
2022/06/17 09:49:22;;;;;;;11.82;6.75;;;;;;;;;;5064322;28;20406;-65
2022/06/17 09:51:52;;;;;;;11.32;7.40;;;;;;;;;;5070518;28;20044;-65
2022/06/17 09:54:22;;;;;;;9.18;6.10;;;;;;;;;;5082696;28;20408;-65
2022/06/17 09:56:55;;;;;;;7.32;6.40;;;;;;;;;;5081002;28;20040;-65
2022/06/17 09:59:23;;;;;;;9.30;7.30;;;;;;;;;;5084925;28;20509;-65
2022/06/17 10:01:49;;;;;;;9.68;6.70;;;;;;;;;;5073189;28;20100;-65
2022/06/17 10:04:16;;;;;;;7.55;6.43;;;;;;;;;;5089239;28;20109;-65
2022/06/17 10:06:45;;;;;;;7.60;6.03;;;;;;;;;;5083866;28;20040;-65
2022/06/17 10:09:18;;;;;;;7.68;6.15;;;;;;;;;;5083874;28;20499;-65
2022/06/17 10:11:49;;;;;;;10.48;6.20;;;;;;;;;;5081508;28;20110;-65
2022/06/17 10:14:34;;;;;;;11.35;5.32;;;;;;;;;;5089283;28;20036;-65
2022/06/17 10:20:03;;;;;;;8.60;6.22;;;;;;;;;;5085662;28;20098;-65
2022/06/17 10:22:32;;;;;;;6.65;3.95;;;;;;;;;;5078723;28;20198;-65
2022/06/17 10:25:28;;;;;;;9.10;5.40;;;;;;;;;;5071742;28;20048;-65
2022/06/17 10:28:11;;;;;;;6.57;4.38;;;;;;;;;;5039591;28;20515;-65
2022/06/17 10:30:43;;;;;;;7.93;4.53;;;;;;;;;;5075628;28;20043;-65
2022/06/17 10:33:11;;;;;;;10.02;5.15;;;;;;;;;;5068348;28;20402;-65
2022/06/17 10:35:39;;;;;;;9.85;5.00;;;;;;;;;;5082697;28;20090;-65
2022/06/17 10:38:11;;;;;;;8.13;4.75;;;;;;;;;;5079415;28;20040;-66
2022/06/17 10:40:38;;;;;;;6.32;4.68;;;;;;;;;;5082208;28;20394;-65
2022/06/17 10:43:07;;;;;;;7.72;4.65;;;;;;;;;;5070703;28;20229;-65
2022/06/17 10:45:34;;;;;;;7.32;4.80;;;;;;;;;;5084873;28;20562;-66
2022/06/17 10:48:00;;;;;;;7.00;5.05;;;;;;;;;;5083131;28;20052;-65
2022/06/17 10:50:28;;;;;;;8.52;4.20;;;;;;;;;;5076390;28;20047;-65
2022/06/17 10:53:05;;;;;;;5.47;4.30;;;;;;;;;;5074972;28;20044;-66
2022/06/17 10:55:37;;;;;;;14.85;4.57;;;;;;;;;;5085826;28;20105;-65
2022/06/17 10:58:11;;;;;;;7.05;4.25;;;;;;;;;;5057194;28;20139;-66
2022/06/17 11:00:46;;;;;;;7.60;4.53;;;;;;;;;;5088395;28;20047;-65
2022/06/17 11:03:17;;;;;;;7.00;4.25;;;;;;;;;;5078402;28;20113;-65
2022/06/17 11:05:43;;;;;;;12.30;4.90;;;;;;;;;;5080314;28;20052;-65
2022/06/17 11:08:20;;;;;;;10.52;5.07;;;;;;;;;;5068284;28;20136;-65
2022/06/17 11:10:51;;;;;;;5.97;3.88;;;;;;;;;;5078516;28;20036;-65
2022/06/17 11:13:17;;;;;;;6.13;4.55;;;;;;;;;;5079935;28;20036;-65
2022/06/17 11:15:45;;;;;;;7.70;4.57;;;;;;;;;;5085911;28;20044;-65
2022/06/17 11:18:21;;;;;;;6.28;4.95;;;;;;;;;;5078545;28;20413;-65
2022/06/17 11:21:00;;;;;;;7.20;4.35;;;;;;;;;;5082733;28;20477;-66
2022/06/17 11:23:31;;;;;;;7.32;4.82;;;20.60;97.30;;;;;;5089985;28;20075;-66
2022/06/17 11:26:17;;;;;;;6.80;4.35;;;23.20;93.30;;;;;;5091995;28;20566;-66
2022/06/17 11:28:53;;;;;;;6.53;4.85;;;23.10;93.30;;;;;;5084752;28;20123;-66
2022/06/17 11:31:25;;;;;;;5.85;3.30;;;23.10;92.70;;;;;;5085904;28;20051;-65
2022/06/17 11:33:57;;;;;;;12.13;4.45;;;;;;;;;;5089858;28;20088;-66
2022/06/17 11:36:37;;;;;;;9.30;4.22;;;;;;;;;;5085113;28;20044;-65
2022/06/17 11:39:22;;;;;;;8.55;4.78;;;;;;;;;;5082333;28;20040;-65
2022/06/17 11:41:48;;;;;;;10.68;4.38;;;;;;;;;;5082084;28;20120;-65
2022/06/17 11:44:20;;;;;;;8.15;4.03;;;;;;;;;;5088034;28;20446;-65
2022/06/17 11:46:58;;;;;;;9.25;4.50;;;;;;;;;;5078900;28;20042;-65
2022/06/17 11:49:24;;;;;;;9.15;5.03;;;;;;;;;;5074095;28;20509;-65
2022/06/17 11:51:50;;;;;;;6.03;4.43;;;;;;;;;;5088789;28;20462;-65
2022/06/17 11:54:21;;;;;;;6.35;4.10;;;;;;;;;;5079622;28;20063;-66
2022/06/17 11:56:48;;;;;;;6.28;4.03;;;;;;;;;;5076669;28;20238;-65
2022/06/17 11:59:14;;;;;;;7.45;4.40;;;;;;;;;;5082858;28;20097;-65
2022/06/17 12:01:41;;;;;;;6.90;3.55;;;;;;;;;;5085215;28;20071;-65
2022/06/17 12:04:26;;;;;;;4.10;3.17;;;;;;;;;;5071761;28;20051;-65
2022/06/17 12:06:55;;;;;;;4.47;3.45;;;;;;;;;;5075792;28;20066;-65
2022/06/17 12:09:28;;;;;;;5.05;3.40;;;;;;;;;;5081947;28;20117;-66
2022/06/17 12:12:01;;;;;;;6.15;3.97;;;;;;;;;;5071721;28;20383;-66
2022/06/17 12:14:39;;;;;;;5.68;4.18;;;;;;;;;;5087562;28;20040;-65
2022/06/17 12:17:10;;;;;;;7.13;4.03;;;;;;;;;;5090636;28;20036;-65
2022/06/17 12:19:36;;;;;;;7.40;4.32;;;;;;;;;;5075019;28;20036;-66
2022/06/17 12:22:09;;;;;;;6.88;3.95;;;;;;;;;;5089245;28;20105;-66
2022/06/17 12:24:41;;;;;;;8.90;4.22;;;;;;;;;;5065495;28;20059;-65
2022/06/17 12:27:16;;;;;;;8.15;3.70;;;;;;;;;;5087219;28;20048;-66
2022/06/17 12:30:12;;;;;;;8.77;4.38;;;;;;;;;;5080697;28;20131;-65
2022/06/17 12:32:41;;;;;;;4.57;2.92;;;;;;;;;;5070592;28;20473;-65
2022/06/17 12:35:16;;;;;;;6.72;3.25;;;;;;;;;;5086197;28;20545;-65
2022/06/17 12:37:58;;;;;;;6.15;2.97;;;;;;;;;;5082373;28;20534;-65
2022/06/17 12:40:33;;;;;;;6.30;3.00;;;;;;;;;;5073928;28;20123;-65
2022/06/17 12:43:06;;;;;;;3.80;3.10;;;;;;;;;;5071335;28;20362;-65
2022/06/17 12:45:39;;;;;;;5.10;2.47;;;;;;;;;;5080658;28;20035;-66
2022/06/17 12:48:13;;;;;;;8.93;3.22;;;;;;;;;;5079261;28;20036;-66
2022/06/17 12:53:37;;;;;;;6.55;2.83;;;;;;;;;;5082530;28;20048;-66
2022/06/17 12:56:09;;;;;;;4.00;2.17;;;;;;;;;;5089702;28;20028;-66
2022/06/17 12:58:54;;;;;;;7.15;3.50;;;;;;;;;;5074876;28;20032;-66
2022/06/17 13:01:33;;;;;;;4.60;3.05;;;;;;;;;;5080971;28;20397;-65
2022/06/17 13:04:00;;;;;;;3.65;2.63;;;;;;;;;;5076974;28;20072;-65
2022/06/17 13:06:44;;;;;;;8.82;3.25;;;;;;;;;;5087135;28;20036;-65
2022/06/17 13:09:10;;;;;;;5.65;3.22;;;;;;;;;;5086807;28;20036;-66
2022/06/17 13:11:49;;;;;;;6.60;3.30;;;;;;;;;;5081909;28;20490;-65
2022/06/17 13:14:15;;;;;;;4.20;2.42;;;;;;;;;;5089035;28;20282;-66
2022/06/17 13:16:55;;;;;;;4.68;2.63;;;;;;;;;;5086360;28;20028;-65
2022/06/17 13:19:22;;;;;;;6.80;3.67;;;;;;;;;;5087675;28;20448;-66
2022/06/17 13:21:48;;;;;;;5.93;3.47;;;;;;;;;;5089194;28;20044;-66
2022/06/17 13:24:33;;;;;;;6.28;2.95;;;;;;;;;;5082755;28;20052;-66
2022/06/17 13:27:16;;;;;;;7.53;3.55;;;;;;;;;;5081055;28;20044;-65
2022/06/17 13:30:01;;;;;;;5.53;3.03;;;;;;;;;;5086255;28;20040;-66
2022/06/17 13:32:34;;;;;;;7.43;4.40;;;;;;;;;;5082754;28;20048;-65
2022/06/17 13:35:07;;;;;;;4.72;3.53;;;;;;;;;;5078324;28;20134;-65
2022/06/17 13:37:43;;;;;;;8.57;4.53;;;;;;;;;;5073494;28;20478;-65
2022/06/17 13:40:23;;;;;;;4.13;3.10;;;;;;;;;;5081369;28;20040;-65
2022/06/17 13:42:50;;;;;;;8.32;4.53;;;;;;;;;;5081457;28;20045;-65
2022/06/17 13:45:28;;;;;;;6.40;4.22;;;;;;;;;;5079479;28;20503;-65
2022/06/17 13:48:11;;;;;;;6.80;3.70;;;;;;;;;;5085671;28;20262;-66
2022/06/17 13:50:40;;;;;;;9.35;4.22;;;;;;;;;;5077049;28;20036;-65
2022/06/17 13:53:34;;;;;;;7.93;3.65;;;;;;;;;;5075989;28;20045;-65
2022/06/17 13:56:09;;;;;;;9.02;4.13;;;;;;;;;;5076281;28;20361;-65
2022/06/17 13:58:44;;;;;;;12.50;4.72;;;;;;;;;;5082425;28;20061;-66
2022/06/17 14:01:16;;;;;;;5.80;3.60;;;;;;;;;;5061482;28;20409;-65
2022/06/17 14:03:54;;;;;;;7.90;4.35;;;;;;;;;;5087372;28;20028;-65
2022/06/17 14:06:27;;;;;;;7.38;4.45;;;;;;;;;;5086211;28;20623;-66
2022/06/17 14:09:04;;;;;;;6.88;4.25;;;;;;;;;;5101068;28;20036;-66
2022/06/17 14:11:45;;;;;;;7.78;4.55;;;;;;;;;;5080601;28;20476;-66
2022/06/17 14:14:21;;;;;;;4.55;3.78;;;;;;;;;;5084530;28;20055;-66
2022/06/17 14:17:00;;;;;;;8.60;3.97;;;;;;;;;;5075539;28;20137;-66
2022/06/17 14:19:47;;;;;;;11.02;4.18;;;;;;;;;;5086958;28;20036;-66
2022/06/17 14:22:22;;;;;;;4.03;3.40;;;;;;;;;;5086805;28;20044;-66
2022/06/17 14:24:48;;;;;;;7.75;4.00;;;;;;;;;;5078003;28;20037;-67
2022/06/17 14:27:27;;;;;;;6.13;3.53;;;;;;;;;;5084677;28;20040;-66
2022/06/17 14:30:05;;;;;;;5.20;3.65;;;;;;;;;;5082046;28;20043;-66
2022/06/17 14:32:46;;;;;;;10.75;4.57;;;;;;;;;;5088975;28;20079;-66
2022/06/17 14:35:28;;;;;;;5.55;3.90;;;;;;;;;;5085657;28;20037;-67
2022/06/17 14:38:12;;;;;;;9.60;7.05;;;;;;;;;;5081954;28;20513;-66
2022/06/17 14:43:30;;;;;;;6.78;4.82;;;;;;;;;;5061256;28;20043;-67
2022/06/17 14:45:58;;;;;;;6.47;4.57;;;;;;;;;;5088848;28;20044;-67
2022/06/17 14:48:26;;;;;;;5.32;4.60;;;;;;;;;;5088305;28;20439;-67
2022/06/17 14:50:55;;;;;;;6.65;3.92;;;;;;;;;;5083314;28;20040;-67
2022/06/17 14:53:23;;;;;;;7.95;5.47;;;;;;;;;;5080658;28;20770;-66
2022/06/17 14:55:52;;;;;;;12.07;4.85;;;;;;;;;;5090254;28;20120;-66
2022/06/17 14:58:18;;;;;;;7.57;4.45;;;;;;;;;;5089555;28;20051;-67
2022/06/17 15:00:46;;;;;;;6.50;4.38;;;;;;;;;;5089534;28;20031;-66
2022/06/17 15:03:22;;;;;;;7.35;3.70;;;;;;;;;;5080075;28;20083;-66
2022/06/17 15:05:50;;;;;;;7.28;3.97;;;;;;;;;;5087624;28;20048;-66
2022/06/17 15:08:20;;;;;;;9.23;4.13;;;;;;;;;;5083650;28;20823;-66
2022/06/17 15:11:07;;;;;;;4.55;3.85;;;;;;;;;;5090461;28;20028;-66
2022/06/17 15:16:24;;;;;;;5.38;4.15;;;;;;;;;;5077462;28;20055;-66